Time;durP1;ratioP1;P1;durP2;ratioP2;P2;SDS_P1;SDS_P2;PMS_P1;PMS_P2;Temp;Humidity;BMP_temperature;BMP_pressure;BME280_temperature;BME280_humidity;BME280_pressure;Samples;Min_cycle;Max_cycle;Signal;HPM_P1;HPM_P2
2022/07/06 00:01:47;;;;;;;7.40;6.28;;;;;;;24.67;57.65;100332.69;1702404;83;21094;-59
2022/07/06 00:04:14;;;;;;;6.60;5.35;;;;;;;24.62;57.61;100329.82;1701692;82;21108;-58
2022/07/06 00:06:40;;;;;;;8.23;5.90;;;;;;;24.59;57.73;100328.91;1709288;83;21054;-58
2022/07/06 00:09:07;;;;;;;9.58;6.15;;;;;;;24.57;57.68;100330.99;1708253;82;21235;-59
2022/07/06 00:11:35;;;;;;;10.35;6.17;;;;;;;24.54;58.38;100329.52;1709689;82;21050;-59
2022/07/06 00:14:03;;;;;;;9.28;6.10;;;;;;;24.54;58.64;100324.13;1714155;83;21607;-58
2022/07/06 00:16:30;;;;;;;8.48;5.62;;;;;;;24.58;58.75;100324.55;1717151;83;21069;-58
2022/07/06 00:18:57;;;;;;;7.10;5.67;;;;;;;24.60;58.73;100324.66;1713957;82;21054;-58
2022/07/06 00:21:24;;;;;;;11.12;6.55;;;;;;;24.57;59.08;100314.33;1701273;83;21137;-59
2022/07/06 00:23:51;;;;;;;8.95;6.30;;;;;;;24.54;59.78;100321.44;1712402;82;21173;-58
2022/07/06 00:26:19;;;;;;;8.38;6.05;;;;;;;24.52;60.04;100318.16;1724073;82;21014;-58
2022/07/06 00:28:45;;;;;;;8.60;6.62;;;;;;;24.52;59.98;100321.38;1722164;81;21462;-58
2022/07/06 00:31:12;;;;;;;8.70;6.03;;;;;;;24.51;60.13;100317.87;1731545;82;21125;-58
2022/07/06 00:33:38;;;;;;;8.25;5.90;;;;;;;24.51;60.43;100316.52;1723016;81;21062;-58
2022/07/06 00:36:05;;;;;;;8.58;6.15;;;;;;;24.48;60.68;100316.95;1726457;81;21114;-59
2022/07/06 00:38:32;;;;;;;8.78;5.97;;;;;;;24.46;60.84;100320.35;1720313;81;21523;-58
2022/07/06 00:40:59;;;;;;;9.75;6.92;;;;;;;24.48;60.77;100322.33;1730287;82;21136;-58
2022/07/06 00:43:25;;;;;;;10.68;6.40;;;;;;;24.48;60.72;100318.30;1730039;81;21090;-58
2022/07/06 00:45:52;;;;;;;8.35;5.87;;;;;;;24.46;60.62;100321.20;1728733;82;21132;-58
2022/07/06 00:48:18;;;;;;;10.10;6.45;;;;;;;24.46;60.63;100323.05;1728269;81;21077;-58
2022/07/06 00:50:45;;;;;;;7.80;5.80;;;;;;;24.43;60.68;100325.66;1728717;81;21082;-59
2022/07/06 00:53:11;;;;;;;10.08;6.03;;;;;;;24.41;60.74;100319.67;1731313;81;21035;-59
2022/07/06 00:55:41;;;;;;;8.25;6.40;;;;;;;24.38;60.67;100318.76;1688920;82;21067;-59
2022/07/06 00:58:08;;;;;;;11.20;7.10;;;;;;;24.34;60.81;100324.78;1728976;81;21180;-58
2022/07/06 01:00:35;;;;;;;8.35;5.97;;;;;;;24.28;60.92;100324.59;1724227;83;21377;-59
2022/07/06 01:03:02;;;;;;;8.73;6.33;;;;;;;24.25;61.23;100319.64;1717056;81;21059;-59
2022/07/06 01:05:29;;;;;;;8.20;6.40;;;;;;;24.23;61.41;100320.38;1706104;81;21074;-59
2022/07/06 01:07:56;;;;;;;9.63;5.95;;;;;;;24.24;61.59;100317.16;1718099;81;21130;-59
2022/07/06 01:10:23;;;;;;;7.50;5.80;;;;;;;24.23;61.78;100319.56;1719751;83;21129;-58
2022/07/06 01:12:50;;;;;;;9.70;6.22;;;;;;;24.21;62.01;100320.28;1701831;81;21094;-59
2022/07/06 01:15:21;;;;;;;8.63;6.33;;;;;;;24.19;62.17;100325.05;1723041;82;21016;-58
2022/07/06 01:17:48;;;;;;;8.90;6.40;;;;;;;24.19;62.27;100321.87;1716445;81;21091;-58
2022/07/06 01:20:24;;;;;;;11.40;6.33;;;;;;;24.17;62.30;100318.55;1722977;83;21066;-58
2022/07/06 01:22:53;;;;;;;8.28;6.50;;;;;;;24.16;62.42;100323.63;1715368;81;21116;-58
2022/07/06 01:25:21;;;;;;;15.63;6.47;;;;;;;24.15;62.58;100320.62;1705108;83;21188;-58
2022/07/06 01:27:47;;;;;;;10.90;7.10;;;;;;;24.17;62.57;100319.89;1711971;81;21145;-59
2022/07/06 01:30:17;;;;;;;8.65;5.78;;;;;;;24.16;62.54;100316.91;1727072;82;21055;-58
2022/07/06 01:32:44;;;;;;;8.65;6.80;;;;;;;24.15;62.65;100320.62;1668636;84;21124;-58
2022/07/06 01:35:15;;;;;;;9.68;6.85;;;;;;;24.12;62.91;100323.73;1705801;83;21096;-58
2022/07/06 01:37:43;;;;;;;9.30;6.58;;;;;;;24.07;63.33;100319.02;1691153;84;21066;-58
2022/07/06 01:40:11;;;;;;;8.45;6.35;;;;;;;24.03;63.58;100317.78;1685784;84;21028;-59
2022/07/06 01:42:39;;;;;;;10.32;6.62;;;;;;;23.98;63.88;100318.13;1689681;84;21118;-58
2022/07/06 01:45:08;;;;;;;9.93;6.35;;;;;;;23.99;63.94;100314.38;1726657;81;21541;-59
2022/07/06 01:47:35;;;;;;;9.83;6.45;;;;;;;24.02;63.94;100315.30;1732320;82;21158;-58
2022/07/06 01:50:06;;;;;;;14.25;7.78;;;;;;;24.05;64.12;100318.39;1733696;82;21106;-58
2022/07/06 01:52:34;;;;;;;13.98;6.40;;;;;;;24.03;64.10;100312.41;1716403;82;21129;-58
2022/07/06 01:55:02;;;;;;;8.43;6.58;;;;;;;24.01;64.11;100312.33;1668905;85;21018;-58
2022/07/06 01:57:30;;;;;;;9.85;6.12;;;;;;;24.00;63.97;100320.08;1691960;83;21075;-59
2022/07/06 01:59:57;;;;;;;8.28;6.05;;;;;;;23.95;63.87;100323.39;1665935;84;21140;-58
2022/07/06 02:02:24;;;;;;;10.75;6.83;;;;;;;23.92;63.89;100327.34;1734399;81;21139;-58
2022/07/06 02:04:50;;;;;;;10.93;6.65;;;;;;;23.90;63.89;100324.02;1732234;82;21016;-58
2022/07/06 02:07:16;;;;;;;9.75;6.65;;;;;;;23.94;64.54;100319.08;1729883;81;21103;-58
2022/07/06 02:09:43;;;;;;;9.25;6.45;;;;;;;23.99;64.71;100323.79;1729437;82;21005;-58
2022/07/06 02:12:10;;;;;;;13.45;7.72;;;;;;;24.04;64.87;100322.63;1731727;81;21228;-58
2022/07/06 02:14:37;;;;;;;10.75;6.55;;;;;;;24.07;65.21;100314.14;1712163;82;21122;-58
2022/07/06 02:17:03;;;;;;;10.15;7.00;;;;;;;24.08;65.20;100313.94;1730802;82;21055;-58
2022/07/06 02:19:30;;;;;;;8.98;6.85;;;;;;;24.05;64.94;100314.36;1726893;82;21108;-58
2022/07/06 02:21:57;;;;;;;8.15;6.62;;;;;;;24.01;64.50;100317.70;1727210;82;21043;-58
2022/07/06 02:24:23;;;;;;;7.83;6.37;;;;;;;23.98;64.05;100319.47;1704048;82;21122;-59
2022/07/06 02:26:50;;;;;;;7.35;5.72;;;;;;;23.93;63.93;100316.89;1667017;84;21727;-58
2022/07/06 02:29:17;;;;;;;9.53;6.15;;;;;;;23.95;64.09;100318.55;1733202;82;21478;-59
2022/07/06 02:31:45;;;;;;;8.65;6.03;;;;;;;23.99;63.96;100318.41;1675854;83;21082;-58
2022/07/06 02:34:11;;;;;;;9.65;6.75;;;;;;;24.01;63.92;100311.80;1704541;83;21087;-59
2022/07/06 02:36:38;;;;;;;10.05;6.53;;;;;;;24.04;63.77;100305.16;1701527;83;21050;-58
2022/07/06 02:39:07;;;;;;;9.98;6.10;;;;;;;24.04;63.87;100307.35;1690318;82;21026;-58
2022/07/06 02:41:34;;;;;;;10.25;6.33;;;;;;;24.05;63.74;100308.98;1693948;83;22236;-58
2022/07/06 02:44:00;;;;;;;9.85;6.65;;;;;;;24.08;63.68;100303.71;1697496;83;21597;-58
2022/07/06 02:46:27;;;;;;;9.63;6.25;;;;;;;24.09;63.78;100309.38;1698215;82;21712;-58
2022/07/06 02:48:53;;;;;;;11.15;6.62;;;;;;;24.08;63.82;100309.91;1693957;83;21200;-58
2022/07/06 02:51:20;;;;;;;6.92;5.95;;;;;;;24.12;63.84;100308.95;1698427;83;21012;-58
2022/07/06 03:07:06;;;;;;;11.20;7.25;;;;;;;25.11;62.24;100303.97;1788548;78;22610;-57
2022/07/06 03:23:58;;;;;;;9.15;7.42;;;;;;;26.00;60.33;100307.75;1759412;79;22452;-50
2022/07/06 03:26:25;;;;;;;10.30;7.42;;;;;;;26.04;60.05;100295.48;1730323;82;21043;-50
2022/07/06 03:28:52;;;;;;;9.45;7.05;;;;;;;26.02;60.20;100296.22;1725914;81;21140;-51
2022/07/06 03:31:18;;;;;;;9.33;6.80;;;;;;;25.97;60.08;100304.16;1749804;80;21078;-50
2022/07/06 03:33:45;;;;;;;9.03;6.97;;;;;;;25.90;59.93;100300.70;1759315;80;21552;-49
2022/07/06 03:36:12;;;;;;;8.90;7.72;;;;;;;25.83;60.09;100301.31;1720215;81;21981;-49
2022/07/06 03:38:39;;;;;;;13.43;7.35;;;;;;;25.76;59.92;100301.39;1756984;80;21045;-49
2022/07/06 03:41:06;;;;;;;7.42;6.47;;;;;;;25.70;60.20;100304.44;1745524;80;21136;-50
2022/07/06 03:43:33;;;;;;;11.25;6.75;;;;;;;25.65;60.18;100306.98;1733041;81;21037;-50
2022/07/06 03:46:00;;;;;;;8.55;7.35;;;;;;;25.63;60.21;100310.44;1743714;80;21061;-49
2022/07/06 03:48:27;;;;;;;8.68;6.70;;;;;;;25.64;60.10;100305.86;1723064;81;21074;-50
2022/07/06 03:50:55;;;;;;;8.23;6.40;;;;;;;25.68;60.07;100305.73;1743992;81;21101;-50
2022/07/06 03:53:22;;;;;;;9.80;6.65;;;;;;;25.72;60.02;100302.38;1750595;80;21251;-50
2022/07/06 03:56:34;;;;;;;9.28;6.95;;;;;;;25.75;59.61;100311.33;1748287;80;21094;-50
2022/07/06 03:58:16;;;;;;;10.15;7.33;;;;;;;25.77;59.36;100305.21;1717177;81;21600;-50
2022/07/06 04:00:44;;;;;;;10.30;7.03;;;;;;;25.81;59.00;100304.77;1743930;80;21109;-50
2022/07/06 04:03:12;;;;;;;9.38;7.08;;;;;;;25.83;58.32;100299.97;1726324;81;21030;-50
2022/07/06 04:05:40;;;;;;;7.75;6.05;;;;;;;25.86;57.97;100300.87;1754054;80;21144;-50
2022/07/06 04:08:08;;;;;;;8.33;6.65;;;;;;;25.92;57.79;100306.68;1764344;80;21046;-50
2022/07/06 04:10:39;;;;;;;8.98;7.10;;;;;;;25.93;57.23;100300.25;1740548;80;21030;-50
2022/07/06 04:13:07;;;;;;;9.25;7.35;;;;;;;25.94;57.32;100302.72;1757860;80;21168;-50
2022/07/06 04:15:36;;;;;;;9.08;6.87;;;;;;;25.96;57.63;100294.44;1749355;80;21396;-50
2022/07/06 04:18:04;;;;;;;8.15;6.67;;;;;;;25.97;57.49;100289.33;1757266;80;21128;-50
2022/07/06 04:20:32;;;;;;;8.48;6.12;;;;;;;25.98;56.84;100289.64;1756474;80;21063;-50
2022/07/06 04:22:58;;;;;;;8.80;5.85;;;;;;;26.01;56.30;100293.23;1753370;80;21070;-50
2022/07/06 04:25:26;;;;;;;8.25;6.95;;;;;;;26.04;55.50;100285.20;1740903;80;21039;-50
2022/07/06 04:27:54;;;;;;;9.28;6.50;;;;;;;26.07;56.14;100288.80;1746277;80;21035;-50
2022/07/06 04:30:22;;;;;;;7.28;5.53;;;;;;;26.09;56.96;100282.65;1743387;80;21122;-50
2022/07/06 04:32:48;;;;;;;7.80;6.33;;;;;;;26.11;56.92;100278.69;1744567;80;21492;-53
2022/07/06 04:35:15;;;;;;;8.20;6.08;;;;;;;26.20;56.80;100282.41;1743355;80;21522;-50
2022/07/06 04:37:42;;;;;;;8.13;6.53;;;;;;;26.23;56.94;100277.38;1744108;80;21544;-50
2022/07/06 04:40:10;;;;;;;9.30;5.75;;;;;;;26.24;56.92;100278.20;1742879;80;21671;-50
2022/07/06 04:42:37;;;;;;;8.25;6.58;;;;;;;26.26;56.87;100280.13;1748005;80;21437;-50
2022/07/06 04:45:06;;;;;;;7.28;5.87;;;;;;;26.27;56.73;100275.86;1744287;80;21065;-50
2022/07/06 04:47:33;;;;;;;8.45;6.55;;;;;;;26.30;56.79;100280.80;1749050;80;21118;-50
2022/07/06 04:49:59;;;;;;;9.13;6.28;;;;;;;26.33;56.67;100275.48;1743265;80;21601;-50
2022/07/06 04:52:27;;;;;;;14.03;5.87;;;;;;;26.36;56.75;100270.98;1745016;80;22413;-50
2022/07/06 04:54:56;;;;;;;7.78;6.42;;;;;;;26.40;56.10;100265.41;1743824;80;22167;-50
2022/07/06 04:57:25;;;;;;;8.30;5.97;;;;;;;26.44;55.59;100262.54;1744301;80;21679;-50
2022/07/06 04:59:53;;;;;;;10.05;6.35;;;;;;;26.48;55.79;100263.73;1741293;80;21699;-50
2022/07/06 05:02:20;;;;;;;9.68;6.33;;;;;;;26.48;56.30;100262.92;1748223;80;21176;-50
2022/07/06 05:04:46;;;;;;;8.90;6.58;;;;;;;26.47;56.38;100259.38;1748680;80;21078;-50
2022/07/06 05:07:13;;;;;;;9.15;6.45;;;;;;;26.48;56.50;100255.64;1745729;80;21119;-49
2022/07/06 05:09:40;;;;;;;10.00;5.95;;;;;;;26.53;55.92;100258.16;1744858;80;21111;-49
2022/07/06 05:12:09;;;;;;;8.43;5.92;;;;;;;26.58;55.66;100256.94;1743648;80;21047;-50
2022/07/06 05:14:36;;;;;;;8.93;6.65;;;;;;;26.62;55.42;100256.25;1754653;80;21066;-49
2022/07/06 05:19:37;;;;;;;7.10;5.22;;;;;;;26.79;55.74;100248.32;1871373;75;22153;-48
2022/07/06 05:22:04;;;;;;;7.35;6.30;;;;;;;26.85;55.35;100247.94;1828660;77;21013;-50
2022/07/06 05:24:32;;;;;;;8.80;5.45;;;;;;;26.95;54.46;100245.98;1830999;77;22006;-48
2022/07/06 05:26:58;;;;;;;7.97;5.78;;;;;;;27.03;54.05;100246.98;1829703;77;21520;-48
2022/07/06 05:29:25;;;;;;;8.98;5.17;;;;;;;27.12;53.78;100241.53;1820708;77;22254;-49
2022/07/06 05:31:52;;;;;;;7.15;5.08;;;;;;;27.20;53.69;100233.58;1831410;77;21026;-48
2022/07/06 05:34:19;;;;;;;7.03;4.90;;;;;;;27.28;52.00;100230.52;1822355;77;21449;-48
2022/07/06 05:36:46;;;;;;;9.25;5.15;;;;;;;27.35;50.81;100231.27;1833671;77;21121;-48
2022/07/06 05:39:13;;;;;;;6.83;5.37;;;;;;;27.42;49.99;100228.44;1828868;77;21508;-49
2022/07/06 05:41:40;;;;;;;6.50;5.03;;;;;;;27.46;48.67;100225.53;1824298;77;21538;-48
2022/07/06 05:44:07;;;;;;;7.55;5.05;;;;;;;27.50;48.27;100225.34;1826066;77;21409;-48
2022/07/06 05:46:34;;;;;;;8.63;5.80;;;;;;;27.53;48.26;100226.22;1831713;77;21497;-49
2022/07/06 05:51:46;;;;;;;7.65;5.97;;;;;;;27.55;47.46;100222.73;1829548;77;21082;-49
2022/07/06 05:54:12;;;;;;;8.95;5.40;;;;;;;27.56;47.29;100220.34;1832740;77;21009;-50
2022/07/06 05:56:39;;;;;;;7.58;5.10;;;;;;;27.56;48.01;100212.23;1821292;78;21309;-49
2022/07/06 05:59:06;;;;;;;7.50;5.20;;;;;;;27.59;47.73;100209.59;1812590;77;21025;-49
2022/07/06 06:01:33;;;;;;;5.95;4.37;;;;;;;27.64;47.77;100211.55;1818573;77;22043;-50
2022/07/06 06:04:01;;;;;;;8.18;5.72;;;;;;;27.67;48.29;100202.97;1823702;77;21057;-49
2022/07/06 06:06:31;;;;;;;7.17;5.10;;;;;;;27.70;47.80;100201.95;1824823;77;21125;-50
2022/07/06 06:08:58;;;;;;;8.95;5.20;;;;;;;27.76;47.85;100202.89;1821336;77;21077;-49
2022/07/06 06:11:26;;;;;;;7.92;4.47;;;;;;;27.84;48.10;100207.91;1821300;77;21029;-50
2022/07/06 06:13:52;;;;;;;8.58;5.08;;;;;;;27.90;47.41;100208.81;1781583;78;21110;-49
2022/07/06 06:16:19;;;;;;;6.50;4.70;;;;;;;27.94;46.16;100214.89;1766825;80;21035;-54
2022/07/06 06:18:46;;;;;;;9.55;5.22;;;;;;;27.97;46.11;100207.66;1756919;80;21025;-49
2022/07/06 06:21:12;;;;;;;7.80;4.80;;;;;;;28.03;46.33;100215.31;1795700;78;21128;-49
2022/07/06 06:23:39;;;;;;;7.05;4.62;;;;;;;28.10;46.67;100210.56;1770516;79;21018;-49
2022/07/06 06:26:05;;;;;;;9.43;4.35;;;;;;;28.16;45.94;100204.19;1787074;78;21096;-49
2022/07/06 06:28:32;;;;;;;8.03;4.95;;;;;;;28.24;46.06;100204.31;1779033;78;21022;-49
2022/07/06 06:30:59;;;;;;;6.42;4.00;;;;;;;28.31;45.79;100195.52;1772096;79;21066;-49
2022/07/06 06:33:25;;;;;;;6.95;4.72;;;;;;;28.39;45.52;100193.47;1774309;79;21050;-49
2022/07/06 06:35:53;;;;;;;7.22;5.20;;;;;;;28.46;46.14;100189.55;1772676;79;21015;-49
2022/07/06 06:38:22;;;;;;;9.63;4.80;;;;;;;28.54;46.78;100195.06;1771453;79;21074;-51
2022/07/06 06:40:49;;;;;;;7.87;5.25;;;;;;;28.62;44.49;100200.09;1777814;79;21090;-49
2022/07/06 06:43:15;;;;;;;6.60;4.22;;;;;;;28.67;45.98;100190.70;1769150;79;21056;-49
2022/07/06 06:45:46;;;;;;;7.67;4.83;;;;;;;28.74;46.75;100189.72;1769891;79;21054;-49
2022/07/06 06:48:13;;;;;;;5.53;4.25;;;;;;;28.79;47.00;100187.08;1768271;79;21054;-49
2022/07/06 06:50:39;;;;;;;7.40;4.78;;;;;;;28.82;46.23;100180.63;1772751;80;21250;-49
2022/07/06 06:53:06;;;;;;;6.62;4.75;;;;;;;28.87;46.49;100176.64;1768070;79;21094;-49
2022/07/06 06:55:32;;;;;;;10.15;4.78;;;;;;;28.93;46.99;100168.59;1767682;79;21049;-50
2022/07/06 06:57:59;;;;;;;7.37;4.37;;;;;;;28.98;47.01;100172.17;1769023;79;20980;-49
2022/07/06 07:00:25;;;;;;;6.75;4.25;;;;;;;29.01;46.80;100168.16;1781503;79;21060;-53
2022/07/06 07:02:52;;;;;;;9.48;4.78;;;;;;;29.05;47.30;100169.28;1782542;79;21198;-50
2022/07/06 07:05:18;;;;;;;7.15;4.75;;;;;;;29.10;46.97;100172.06;1758135;80;21054;-49
2022/07/06 07:07:45;;;;;;;10.65;5.03;;;;;;;29.14;47.10;100168.34;1789341;78;21128;-49
2022/07/06 07:10:12;;;;;;;7.17;4.28;;;;;;;29.16;47.33;100165.64;1780187;78;21108;-49
2022/07/06 07:12:46;;;;;;;6.60;4.42;;;;;;;29.19;46.88;100166.53;1780278;78;21074;-49
2022/07/06 07:15:13;;;;;;;6.00;4.22;;;;;;;29.21;46.89;100162.22;1791441;78;21148;-49
2022/07/06 07:17:40;;;;;;;6.45;4.10;;;;;;;29.27;47.04;100161.22;1768983;79;21087;-49
2022/07/06 07:20:09;;;;;;;6.78;4.62;;;;;;;29.32;47.05;100158.57;1763980;79;21075;-49
2022/07/06 07:22:35;;;;;;;5.95;4.30;;;;;;;29.38;47.18;100156.18;1765392;80;21249;-49
2022/07/06 07:25:03;;;;;;;6.00;4.20;;;;;;;29.42;46.68;100151.91;1763385;80;21132;-49
2022/07/06 07:27:31;;;;;;;5.85;4.15;;;;;;;29.51;46.40;100147.40;1759896;80;21126;-49
2022/07/06 07:29:57;;;;;;;7.60;3.55;;;;;;;29.59;45.86;100152.37;1762954;80;21050;-49
2022/07/06 07:32:24;;;;;;;6.30;3.77;;;;;;;29.65;45.41;100154.04;1764365;80;21070;-49
2022/07/06 07:34:50;;;;;;;7.45;4.17;;;;;;;29.70;45.17;100155.45;1760395;80;21090;-49
2022/07/06 07:37:17;;;;;;;7.42;3.87;;;;;;;29.78;45.07;100158.28;1765273;80;21093;-49
2022/07/06 07:39:43;;;;;;;6.30;4.10;;;;;;;29.83;43.60;100155.07;1763720;80;21170;-49
2022/07/06 07:42:09;;;;;;;7.03;4.10;;;;;;;29.92;43.94;100155.41;1761634;80;21082;-49
2022/07/06 07:44:38;;;;;;;9.45;4.03;;;;;;;29.99;43.25;100159.27;1759998;80;21097;-49
2022/07/06 07:47:05;;;;;;;6.95;4.03;;;;;;;30.06;43.14;100144.14;1763312;80;21082;-49
2022/07/06 07:49:32;;;;;;;7.50;4.58;;;;;;;30.10;43.86;100148.80;1787964;79;21073;-49
2022/07/06 07:51:59;;;;;;;8.23;4.08;;;;;;;30.15;43.79;100142.61;1787111;78;21076;-49
2022/07/06 07:54:26;;;;;;;5.97;4.15;;;;;;;30.18;43.77;100142.91;1764440;80;21063;-49
2022/07/06 07:56:52;;;;;;;5.95;3.95;;;;;;;30.26;43.30;100139.42;1794330;78;21503;-49
2022/07/06 07:59:19;;;;;;;6.10;4.47;;;;;;;30.33;42.73;100138.69;1753082;80;21049;-49
2022/07/06 08:01:46;;;;;;;5.55;3.70;;;;;;;30.39;43.04;100137.66;1785692;78;20968;-49
2022/07/06 08:04:13;;;;;;;6.60;4.15;;;;;;;30.45;42.54;100143.95;1765064;80;21168;-49
2022/07/06 08:06:40;;;;;;;6.83;4.47;;;;;;;30.50;42.13;100142.63;1778712;78;20998;-49
2022/07/06 08:09:07;;;;;;;6.12;4.33;;;;;;;30.57;42.67;100148.64;1763515;80;21572;-49
2022/07/06 08:11:34;;;;;;;7.20;4.37;;;;;;;30.64;42.17;100148.42;1745719;81;21057;-51
2022/07/06 08:14:02;;;;;;;6.05;4.22;;;;;;;30.73;41.63;100146.83;1780156;78;20978;-49
2022/07/06 08:16:29;;;;;;;7.53;4.92;;;;;;;30.82;41.39;100150.70;1764860;80;21714;-49
2022/07/06 08:18:55;;;;;;;6.28;4.03;;;;;;;30.89;40.07;100145.03;1757537;80;21046;-49
2022/07/06 08:21:22;;;;;;;5.85;3.75;;;;;;;30.98;41.09;100144.81;1775160;79;21070;-49
2022/07/06 08:23:49;;;;;;;8.73;4.40;;;;;;;31.03;40.94;100144.84;1768520;80;21060;-49
2022/07/06 08:26:15;;;;;;;9.18;4.22;;;;;;;31.09;40.72;100142.98;1778330;80;21103;-49
2022/07/06 08:28:41;;;;;;;7.85;3.80;;;;;;;31.12;40.32;100139.73;1774365;79;22009;-49
2022/07/06 08:31:08;;;;;;;6.62;4.37;;;;;;;31.13;39.74;100133.20;1774718;80;21623;-49
2022/07/06 08:33:34;;;;;;;10.28;4.25;;;;;;;31.14;40.76;100134.84;1771315;79;22305;-49
2022/07/06 08:36:01;;;;;;;6.40;4.17;;;;;;;31.15;41.18;100135.11;1774955;79;21655;-49
2022/07/06 08:38:28;;;;;;;6.47;3.72;;;;;;;31.16;40.62;100135.39;1772920;79;21606;-49
2022/07/06 08:40:54;;;;;;;5.60;3.92;;;;;;;31.19;40.71;100126.71;1763927;80;22868;-49
2022/07/06 08:43:21;;;;;;;6.60;3.90;;;;;;;31.24;40.75;100130.00;1753620;80;22265;-49
2022/07/06 08:45:48;;;;;;;5.75;3.80;;;;;;;31.29;41.07;100133.54;1772905;80;21657;-49
2022/07/06 08:48:15;;;;;;;9.85;3.98;;;;;;;31.29;41.03;100130.02;1782582;79;21051;-49
2022/07/06 08:50:42;;;;;;;5.58;3.65;;;;;;;31.32;40.23;100122.69;1756404;80;21073;-49
2022/07/06 08:53:08;;;;;;;6.87;3.65;;;;;;;31.37;40.09;100130.02;1775298;79;22079;-49
2022/07/06 08:55:35;;;;;;;5.62;3.95;;;;;;;31.41;39.56;100129.77;1773369;79;21496;-50
2022/07/06 08:58:04;;;;;;;5.85;3.95;;;;;;;31.47;39.57;100120.53;1762851;80;21207;-50
2022/07/06 09:00:31;;;;;;;6.08;4.10;;;;;;;31.56;39.69;100118.16;1769455;79;21556;-50
2022/07/06 09:02:57;;;;;;;5.67;3.90;;;;;;;31.63;40.19;100111.34;1783432;80;21549;-50
2022/07/06 09:05:24;;;;;;;8.43;3.75;;;;;;;31.72;39.85;100108.09;1780120;79;21850;-49
2022/07/06 09:07:52;;;;;;;6.15;3.60;;;;;;;31.78;40.19;100107.02;1773726;79;21101;-49
2022/07/06 09:10:21;;;;;;;6.67;3.70;;;;;;;31.84;40.76;100108.64;1777080;79;21513;-49
2022/07/06 09:12:48;;;;;;;7.53;4.00;;;;;;;31.93;39.91;100104.31;1780699;79;21062;-49
2022/07/06 09:15:15;;;;;;;5.60;3.30;;;;;;;32.01;38.87;100102.41;1785847;79;21003;-49
2022/07/06 09:17:42;;;;;;;5.87;3.60;;;;;;;32.11;38.35;100100.78;1790464;79;21160;-49
2022/07/06 09:20:13;;;;;;;6.55;4.03;;;;;;;32.19;38.63;100095.59;1771884;79;21056;-48
2022/07/06 09:22:40;;;;;;;7.40;4.10;;;;;;;32.25;38.91;100098.34;1770799;79;22183;-53
2022/07/06 09:25:13;;;;;;;7.45;4.33;;;;;;;32.24;38.41;100092.06;1754630;80;21034;-49
2022/07/06 09:27:49;;;;;;;6.17;4.00;;;;;;;32.24;38.50;100095.34;1770349;79;21104;-50
2022/07/06 09:30:16;;;;;;;6.08;3.67;;;;;;;32.26;38.60;100085.79;1769599;79;21156;-49
2022/07/06 09:32:46;;;;;;;6.53;4.20;;;;;;;32.36;38.47;100097.21;1770770;79;21320;-49
2022/07/06 09:35:29;;;;;;;7.20;4.10;;;;;;;32.47;35.83;100091.22;1756088;80;21104;-49
2022/07/06 09:38:11;;;;;;;5.70;4.37;;;;;;;32.58;32.57;100085.47;1773631;79;21011;-49
2022/07/06 09:40:42;;;;;;;6.85;4.15;;;;;;;32.71;32.80;100082.72;1780916;79;21067;-48
2022/07/06 09:43:21;;;;;;;7.62;4.35;;;;;;;32.84;33.09;100079.15;1774018;79;21058;-49
2022/07/06 09:45:52;;;;;;;7.53;4.25;;;;;;;32.88;32.13;100072.84;1770162;79;21070;-49
2022/07/06 09:48:24;;;;;;;5.70;3.80;;;;;;;32.86;32.05;100068.78;1775005;79;21116;-49
2022/07/06 09:50:58;;;;;;;7.80;4.70;;;;;;;32.85;33.19;100073.95;1783127;79;21046;-49
2022/07/06 09:53:26;;;;;;;7.75;4.08;;;;;;;32.91;32.78;100070.12;1784066;79;21748;-49
2022/07/06 09:55:55;;;;;;;5.40;3.83;;;;;;;32.99;31.07;100069.53;1777883;79;21126;-49
2022/07/06 09:58:22;;;;;;;6.62;4.10;;;;;;;33.06;32.55;100067.31;1778591;79;21010;-49
2022/07/06 10:00:49;;;;;;;11.53;4.62;;;;;;;33.13;31.50;100059.62;1754155;80;21068;-48
2022/07/06 10:03:17;;;;;;;6.35;4.25;;;;;;;33.22;32.21;100060.44;1755991;79;21078;-49
2022/07/06 10:05:46;;;;;;;7.05;4.30;;;;;;;33.30;32.83;100063.93;1760657;79;21043;-49
2022/07/06 10:08:14;;;;;;;6.28;4.40;;;;;;;33.31;32.86;100060.12;1753826;80;21083;-48
2022/07/06 10:10:42;;;;;;;10.53;4.83;;;;;;;33.33;32.17;100046.45;1757007;80;21019;-49
2022/07/06 10:13:09;;;;;;;6.33;4.10;;;;;;;33.38;32.19;100052.43;1762530;80;20983;-49
2022/07/06 10:15:39;;;;;;;6.05;4.53;;;;;;;33.45;33.19;100047.46;1760254;80;20984;-49
2022/07/06 10:18:08;;;;;;;7.30;3.92;;;;;;;33.56;32.83;100048.75;1766224;81;21019;-49
2022/07/06 10:20:38;;;;;;;5.20;3.85;;;;;;;33.64;32.50;100047.61;1746207;80;21137;-49
2022/07/06 10:23:08;;;;;;;6.08;4.22;;;;;;;33.78;33.35;100045.62;1775197;78;21045;-49
2022/07/06 10:25:36;;;;;;;7.22;4.25;;;;;;;33.93;33.92;100040.55;1759608;80;21046;-49
2022/07/06 10:28:10;;;;;;;7.35;4.42;;;;;;;34.04;33.30;100034.73;1787807;79;21512;-49
2022/07/06 10:30:32;;;;;;;6.72;4.42;;;;;;;34.08;31.40;100032.77;1765889;79;21066;-49
2022/07/06 10:32:59;;;;;;;7.08;4.10;;;;;;;34.04;31.65;100027.08;1706476;81;21137;-49
2022/07/06 10:35:26;;;;;;;6.17;4.72;;;;;;;33.96;30.40;100024.44;1772709;79;21446;-48
2022/07/06 10:38:08;;;;;;;7.58;4.53;;;;;;;33.91;31.49;100024.49;1778651;80;21121;-49
2022/07/06 10:46:41;;;;;;;7.05;5.12;;;;;;;34.13;29.70;100007.61;1796132;78;21927;-70
2022/07/06 10:52:09;;;;;;;6.22;4.55;;;;;;;34.34;31.01;100010.14;1778568;78;23175;-70
2022/07/06 10:54:40;;;;;;;7.62;5.47;;;;;;;34.47;30.38;100005.34;1737925;80;21030;-70
2022/07/06 10:57:10;;;;;;;7.50;4.92;;;;;;;34.63;28.92;100004.58;1660137;85;21136;-70
2022/07/06 10:59:37;;;;;;;6.47;4.33;;;;;;;34.75;29.09;99997.36;1666821;84;21043;-70
2022/07/06 11:02:18;;;;;;;10.50;4.58;;;;;;;34.88;27.69;99991.72;1693523;84;21022;-70
2022/07/06 11:04:46;;;;;;;6.53;5.03;;;;;;;34.90;27.90;99988.97;1704991;82;21014;-71
2022/07/06 11:07:19;;;;;;;7.28;5.25;;;;;;;34.90;27.81;99982.14;1697446;83;21020;-71
2022/07/06 11:09:58;;;;;;;7.87;5.20;;;;;;;34.88;28.71;99977.50;1704690;83;21566;-71
2022/07/06 11:12:24;;;;;;;7.83;4.72;;;;;;;34.87;28.77;99975.89;1705349;82;21022;-71
2022/07/06 11:14:52;;;;;;;8.20;4.67;;;;;;;34.91;29.66;99962.44;1713373;82;21039;-71
2022/07/06 11:17:20;;;;;;;8.38;5.08;;;;;;;35.00;29.49;99957.11;1702073;82;21059;-72
2022/07/06 11:19:56;;;;;;;12.58;5.60;;;;;;;35.11;29.90;99954.48;1713669;82;21623;-72
2022/07/06 11:22:24;;;;;;;8.10;5.22;;;;;;;35.22;28.38;99949.66;1696701;83;21118;-72
2022/07/06 11:24:51;;;;;;;6.80;4.83;;;;;;;35.31;28.82;99949.27;1719945;82;21494;-72
2022/07/06 11:27:19;;;;;;;6.50;4.83;;;;;;;35.38;28.00;99943.42;1696473;83;21053;-71
2022/07/06 11:29:46;;;;;;;5.85;4.62;;;;;;;35.45;28.63;99942.47;1711881;82;21066;-71
2022/07/06 11:32:14;;;;;;;6.75;4.40;;;;;;;35.53;28.06;99941.78;1715789;82;21074;-72
2022/07/06 11:34:43;;;;;;;10.20;5.00;;;;;;;35.62;28.23;99933.13;1711281;82;21149;-72
2022/07/06 11:37:12;;;;;;;7.05;4.45;;;;;;;35.70;28.48;99940.63;1704524;83;21007;-72
2022/07/06 11:39:41;;;;;;;7.37;4.75;;;;;;;35.81;28.72;99935.00;1709835;83;21611;-71
2022/07/06 11:42:12;;;;;;;7.40;4.78;;;;;;;35.88;28.58;99929.39;1707642;82;21071;-71
2022/07/06 11:44:40;;;;;;;7.28;4.47;;;;;;;35.96;28.41;99934.72;1714558;82;21050;-71
2022/07/06 11:47:07;;;;;;;8.50;4.62;;;;;;;36.05;27.80;99935.62;1706921;83;21253;-71
2022/07/06 11:49:35;;;;;;;9.80;4.95;;;;;;;36.16;27.11;99938.95;1714136;83;21047;-71
2022/07/06 11:52:11;;;;;;;6.08;4.85;;;;;;;36.25;26.85;99935.00;1698025;82;21050;-71
2022/07/06 11:54:41;;;;;;;7.45;4.83;;;;;;;36.34;27.68;99935.08;1684699;83;21147;-72
2022/07/06 11:57:08;;;;;;;10.65;4.03;;;;;;;36.42;27.00;99933.80;1685407;82;21140;-72
2022/07/06 11:59:36;;;;;;;6.72;4.37;;;;;;;36.53;27.66;99923.98;1682971;83;21135;-72
2022/07/06 12:02:07;;;;;;;6.35;4.40;;;;;;;36.64;27.15;99921.27;1680329;83;21033;-72
2022/07/06 12:04:40;;;;;;;8.00;3.70;;;;;;;36.76;27.83;99915.27;1681356;83;21095;-72
2022/07/06 12:07:14;;;;;;;8.03;4.92;;;;;;;36.92;27.85;99906.94;1680007;83;21096;-72
2022/07/06 12:09:42;;;;;;;13.53;5.28;;;;;;;37.04;26.71;99910.48;1682827;83;21063;-71